Cochran, Georgia
Current Conditions -  °F | °C
As of 10:15 AM on Thursday 23 Oct 2014 (Local Time) from KEZM Reporting Station
Clear Clear  
Wind Chill: 57°   Ceiling: Unl
Heat Index: 57°   Visibility: 10mi
Dew Point: 47°   Wind: 5mph
Humidity: 68%   Direction: 60°ENE
Pressure: 30.16"   Gusts: NA
Location:  32.39°N, 83.35°W
Report Text: KEZM 231415Z AUTO 06004KT 10SM CLR 14/08 A3016 RMK AO2 T01410083
Loading
Personal Weather Stations






























Interactive Weather Map
Tropical Storm Tracking
New forecast layout! Learn more

10-Day Weather Forecast

Advertisements
Track Severe Weather on mobile